sensor_id;sensor_type;location;lat;lon;timestamp;temperature;humidity
34815;DHT22;21030;53.912;15.214;2023-08-30T00:01:24;39.50;27.80
34815;DHT22;21030;53.912;15.214;2023-08-30T00:03:51;39.40;27.70
34815;DHT22;21030;53.912;15.214;2023-08-30T00:06:20;39.30;27.80
34815;DHT22;21030;53.912;15.214;2023-08-30T00:08:48;39.40;27.80
34815;DHT22;21030;53.912;15.214;2023-08-30T00:11:17;39.60;27.80
34815;DHT22;21030;53.912;15.214;2023-08-30T00:13:46;39.60;27.70
34815;DHT22;21030;53.912;15.214;2023-08-30T00:16:15;39.70;27.70
34815;DHT22;21030;53.912;15.214;2023-08-30T00:18:45;39.50;27.70
34815;DHT22;21030;53.912;15.214;2023-08-30T00:21:16;39.60;27.80
34815;DHT22;21030;53.912;15.214;2023-08-30T00:23:45;39.60;27.70
34815;DHT22;21030;53.912;15.214;2023-08-30T00:26:14;39.50;27.70
34815;DHT22;21030;53.912;15.214;2023-08-30T00:28:43;39.20;27.90
34815;DHT22;21030;53.912;15.214;2023-08-30T00:31:12;38.90;28.10
34815;DHT22;21030;53.912;15.214;2023-08-30T00:33:41;38.70;28.20
34815;DHT22;21030;53.912;15.214;2023-08-30T00:36:09;38.60;28.40
34815;DHT22;21030;53.912;15.214;2023-08-30T00:38:38;38.80;28.30
34815;DHT22;21030;53.912;15.214;2023-08-30T00:41:06;38.90;28.30
34815;DHT22;21030;53.912;15.214;2023-08-30T00:43:35;38.80;28.30
34815;DHT22;21030;53.912;15.214;2023-08-30T00:46:04;39.00;28.40
34815;DHT22;21030;53.912;15.214;2023-08-30T00:48:33;38.80;28.50
34815;DHT22;21030;53.912;15.214;2023-08-30T00:51:03;38.80;28.60
34815;DHT22;21030;53.912;15.214;2023-08-30T00:53:32;39.00;28.70
34815;DHT22;21030;53.912;15.214;2023-08-30T00:56:02;39.00;28.50
34815;DHT22;21030;53.912;15.214;2023-08-30T00:58:32;39.10;28.40
34815;DHT22;21030;53.912;15.214;2023-08-30T01:01:04;39.30;28.40
34815;DHT22;21030;53.912;15.214;2023-08-30T01:03:36;39.40;28.40
34815;DHT22;21030;53.912;15.214;2023-08-30T01:06:05;39.40;28.30
34815;DHT22;21030;53.912;15.214;2023-08-30T01:08:36;39.50;28.20
34815;DHT22;21030;53.912;15.214;2023-08-30T01:16:30;39.20;28.20
34815;DHT22;21030;53.912;15.214;2023-08-30T01:19:13;39.30;28.30
34815;DHT22;21030;53.912;15.214;2023-08-30T01:21:56;39.20;28.20
34815;DHT22;21030;53.912;15.214;2023-08-30T01:27:39;38.80;28.60
34815;DHT22;21030;53.912;15.214;2023-08-30T01:30:09;38.90;28.60
34815;DHT22;21030;53.912;15.214;2023-08-30T01:32:39;39.10;28.70
34815;DHT22;21030;53.912;15.214;2023-08-30T01:35:09;38.80;28.60
34815;DHT22;21030;53.912;15.214;2023-08-30T01:37:42;38.90;28.70
34815;DHT22;21030;53.912;15.214;2023-08-30T01:40:11;38.80;28.60
34815;DHT22;21030;53.912;15.214;2023-08-30T01:42:41;38.80;28.60
34815;DHT22;21030;53.912;15.214;2023-08-30T01:45:13;38.80;28.60
34815;DHT22;21030;53.912;15.214;2023-08-30T01:47:44;38.70;28.60
34815;DHT22;21030;53.912;15.214;2023-08-30T01:50:12;38.70;28.70
34815;DHT22;21030;53.912;15.214;2023-08-30T01:52:40;38.90;28.50
34815;DHT22;21030;53.912;15.214;2023-08-30T01:55:08;39.00;28.40
34815;DHT22;21030;53.912;15.214;2023-08-30T01:57:36;39.00;28.30
34815;DHT22;21030;53.912;15.214;2023-08-30T02:00:04;39.10;28.10
34815;DHT22;21030;53.912;15.214;2023-08-30T02:02:33;39.20;28.10
34815;DHT22;21030;53.912;15.214;2023-08-30T02:05:00;39.30;28.10
34815;DHT22;21030;53.912;15.214;2023-08-30T02:10:08;39.30;27.70
34815;DHT22;21030;53.912;15.214;2023-08-30T02:12:53;39.20;27.60
34815;DHT22;21030;53.912;15.214;2023-08-30T02:15:24;39.30;27.70
34815;DHT22;21030;53.912;15.214;2023-08-30T02:17:53;39.10;27.80
34815;DHT22;21030;53.912;15.214;2023-08-30T02:20:22;39.20;27.70
34815;DHT22;21030;53.912;15.214;2023-08-30T02:22:50;39.30;27.60
34815;DHT22;21030;53.912;15.214;2023-08-30T02:25:17;39.40;27.60
34815;DHT22;21030;53.912;15.214;2023-08-30T02:27:44;39.50;27.50
34815;DHT22;21030;53.912;15.214;2023-08-30T02:30:11;39.50;27.40
34815;DHT22;21030;53.912;15.214;2023-08-30T02:32:38;39.50;27.30
34815;DHT22;21030;53.912;15.214;2023-08-30T02:35:05;39.50;27.40
34815;DHT22;21030;53.912;15.214;2023-08-30T02:37:32;39.60;27.40
34815;DHT22;21030;53.912;15.214;2023-08-30T02:39:59;39.60;27.40
34815;DHT22;21030;53.912;15.214;2023-08-30T02:42:27;39.60;27.30
34815;DHT22;21030;53.912;15.214;2023-08-30T02:44:54;39.60;27.30
34815;DHT22;21030;53.912;15.214;2023-08-30T02:47:21;39.70;27.40
34815;DHT22;21030;53.912;15.214;2023-08-30T02:49:48;39.70;27.40
34815;DHT22;21030;53.912;15.214;2023-08-30T02:52:15;39.70;27.30
34815;DHT22;21030;53.912;15.214;2023-08-30T02:54:42;39.70;27.30
34815;DHT22;21030;53.912;15.214;2023-08-30T02:57:09;39.40;27.50
34815;DHT22;21030;53.912;15.214;2023-08-30T02:59:36;39.00;27.70
34815;DHT22;21030;53.912;15.214;2023-08-30T03:02:03;38.30;28.30
34815;DHT22;21030;53.912;15.214;2023-08-30T03:04:30;38.50;28.50
34815;DHT22;21030;53.912;15.214;2023-08-30T03:06:57;38.40;28.70
34815;DHT22;21030;53.912;15.214;2023-08-30T03:09:24;38.50;28.60
34815;DHT22;21030;53.912;15.214;2023-08-30T03:11:51;38.60;28.60
34815;DHT22;21030;53.912;15.214;2023-08-30T03:14:18;38.30;28.70
34815;DHT22;21030;53.912;15.214;2023-08-30T03:16:45;38.40;28.70
34815;DHT22;21030;53.912;15.214;2023-08-30T03:19:13;38.10;29.00
34815;DHT22;21030;53.912;15.214;2023-08-30T03:21:40;38.30;29.00
34815;DHT22;21030;53.912;15.214;2023-08-30T03:24:07;38.30;28.90
34815;DHT22;21030;53.912;15.214;2023-08-30T03:26:34;38.50;28.80
34815;DHT22;21030;53.912;15.214;2023-08-30T03:29:01;38.50;28.70
34815;DHT22;21030;53.912;15.214;2023-08-30T03:31:29;38.30;28.80
34815;DHT22;21030;53.912;15.214;2023-08-30T03:33:56;37.80;29.20
34815;DHT22;21030;53.912;15.214;2023-08-30T03:36:23;37.60;29.70
34815;DHT22;21030;53.912;15.214;2023-08-30T03:38:50;37.60;29.60
34815;DHT22;21030;53.912;15.214;2023-08-30T03:41:18;37.60;29.70
34815;DHT22;21030;53.912;15.214;2023-08-30T03:43:45;37.80;29.50
34815;DHT22;21030;53.912;15.214;2023-08-30T03:46:12;37.90;29.30
34815;DHT22;21030;53.912;15.214;2023-08-30T03:48:39;38.00;29.30
34815;DHT22;21030;53.912;15.214;2023-08-30T03:51:06;38.20;29.20
34815;DHT22;21030;53.912;15.214;2023-08-30T03:53:33;38.50;28.90
34815;DHT22;21030;53.912;15.214;2023-08-30T03:56:00;38.60;28.70
34815;DHT22;21030;53.912;15.214;2023-08-30T03:58:28;38.70;28.70
34815;DHT22;21030;53.912;15.214;2023-08-30T04:00:55;38.80;28.70
34815;DHT22;21030;53.912;15.214;2023-08-30T04:03:23;38.50;28.70
34815;DHT22;21030;53.912;15.214;2023-08-30T04:05:57;37.80;29.10
34815;DHT22;21030;53.912;15.214;2023-08-30T04:08:24;37.30;29.90
34815;DHT22;21030;53.912;15.214;2023-08-30T04:10:54;37.30;30.10
34815;DHT22;21030;53.912;15.214;2023-08-30T04:13:21;37.60;30.00
34815;DHT22;21030;53.912;15.214;2023-08-30T04:15:48;37.70;29.70
34815;DHT22;21030;53.912;15.214;2023-08-30T04:18:16;37.80;29.80
34815;DHT22;21030;53.912;15.214;2023-08-30T04:20:44;37.80;29.60
34815;DHT22;21030;53.912;15.214;2023-08-30T04:23:12;38.10;29.60
34815;DHT22;21030;53.912;15.214;2023-08-30T04:25:39;38.30;29.30
34815;DHT22;21030;53.912;15.214;2023-08-30T04:28:06;38.10;29.30
34815;DHT22;21030;53.912;15.214;2023-08-30T04:30:36;38.10;29.40
34815;DHT22;21030;53.912;15.214;2023-08-30T04:33:04;37.80;29.80
34815;DHT22;21030;53.912;15.214;2023-08-30T04:35:32;37.50;29.80
34815;DHT22;21030;53.912;15.214;2023-08-30T04:37:59;37.20;30.00
34815;DHT22;21030;53.912;15.214;2023-08-30T04:40:27;37.20;30.00
34815;DHT22;21030;53.912;15.214;2023-08-30T04:42:54;37.00;30.30
34815;DHT22;21030;53.912;15.214;2023-08-30T04:45:21;37.10;30.30
34815;DHT22;21030;53.912;15.214;2023-08-30T04:47:50;37.70;30.00
34815;DHT22;21030;53.912;15.214;2023-08-30T04:50:17;37.80;29.80
34815;DHT22;21030;53.912;15.214;2023-08-30T04:52:44;37.60;29.70
34815;DHT22;21030;53.912;15.214;2023-08-30T04:55:11;37.80;29.80
34815;DHT22;21030;53.912;15.214;2023-08-30T04:57:38;38.30;29.50
34815;DHT22;21030;53.912;15.214;2023-08-30T05:00:05;38.50;29.20
34815;DHT22;21030;53.912;15.214;2023-08-30T05:02:33;38.80;29.00
34815;DHT22;21030;53.912;15.214;2023-08-30T05:05:01;39.00;28.70
34815;DHT22;21030;53.912;15.214;2023-08-30T05:07:28;39.30;28.50
34815;DHT22;21030;53.912;15.214;2023-08-30T05:09:55;39.60;28.40
34815;DHT22;21030;53.912;15.214;2023-08-30T05:12:22;39.70;28.20
34815;DHT22;21030;53.912;15.214;2023-08-30T05:14:49;39.80;28.10
34815;DHT22;21030;53.912;15.214;2023-08-30T05:17:16;40.00;28.00
34815;DHT22;21030;53.912;15.214;2023-08-30T05:19:43;40.00;27.90
34815;DHT22;21030;53.912;15.214;2023-08-30T05:22:10;40.00;27.80
34815;DHT22;21030;53.912;15.214;2023-08-30T05:24:37;40.10;27.70
34815;DHT22;21030;53.912;15.214;2023-08-30T05:27:04;40.00;27.70
34815;DHT22;21030;53.912;15.214;2023-08-30T05:29:31;39.70;27.70
34815;DHT22;21030;53.912;15.214;2023-08-30T05:31:58;39.70;28.10
34815;DHT22;21030;53.912;15.214;2023-08-30T05:34:25;39.50;28.10
34815;DHT22;21030;53.912;15.214;2023-08-30T05:36:53;39.40;28.30
34815;DHT22;21030;53.912;15.214;2023-08-30T05:39:20;39.60;28.30
34815;DHT22;21030;53.912;15.214;2023-08-30T05:41:47;39.50;28.40
34815;DHT22;21030;53.912;15.214;2023-08-30T05:44:14;39.60;28.20
34815;DHT22;21030;53.912;15.214;2023-08-30T05:46:41;39.40;28.40
34815;DHT22;21030;53.912;15.214;2023-08-30T05:49:08;39.30;28.40
34815;DHT22;21030;53.912;15.214;2023-08-30T05:51:35;39.40;28.40
34815;DHT22;21030;53.912;15.214;2023-08-30T05:54:03;39.40;28.40
34815;DHT22;21030;53.912;15.214;2023-08-30T05:56:31;39.10;28.50
34815;DHT22;21030;53.912;15.214;2023-08-30T05:58:58;39.10;28.80
34815;DHT22;21030;53.912;15.214;2023-08-30T06:01:25;39.40;28.70
34815;DHT22;21030;53.912;15.214;2023-08-30T06:03:52;39.40;28.50
34815;DHT22;21030;53.912;15.214;2023-08-30T06:06:19;39.50;28.40
34815;DHT22;21030;53.912;15.214;2023-08-30T06:08:47;39.20;28.70
34815;DHT22;21030;53.912;15.214;2023-08-30T06:11:15;39.50;28.50
34815;DHT22;21030;53.912;15.214;2023-08-30T06:13:42;39.40;28.20
34815;DHT22;21030;53.912;15.214;2023-08-30T06:16:09;39.60;28.50
34815;DHT22;21030;53.912;15.214;2023-08-30T06:18:36;39.80;28.40
34815;DHT22;21030;53.912;15.214;2023-08-30T06:21:04;39.90;28.80
34815;DHT22;21030;53.912;15.214;2023-08-30T06:23:33;39.10;28.60
34815;DHT22;21030;53.912;15.214;2023-08-30T06:26:00;39.30;28.50
34815;DHT22;21030;53.912;15.214;2023-08-30T06:28:29;38.60;28.70
34815;DHT22;21030;53.912;15.214;2023-08-30T06:30:57;38.80;28.70
34815;DHT22;21030;53.912;15.214;2023-08-30T06:33:24;38.70;29.00
34815;DHT22;21030;53.912;15.214;2023-08-30T06:35:52;38.90;28.70
34815;DHT22;21030;53.912;15.214;2023-08-30T06:38:20;39.10;28.70
34815;DHT22;21030;53.912;15.214;2023-08-30T06:40:47;39.10;28.40
34815;DHT22;21030;53.912;15.214;2023-08-30T06:43:16;38.80;28.50
34815;DHT22;21030;53.912;15.214;2023-08-30T06:45:43;39.10;28.60
34815;DHT22;21030;53.912;15.214;2023-08-30T06:48:10;39.50;28.60
34815;DHT22;21030;53.912;15.214;2023-08-30T06:50:38;39.70;28.20
34815;DHT22;21030;53.912;15.214;2023-08-30T06:53:05;39.70;28.20
34815;DHT22;21030;53.912;15.214;2023-08-30T06:55:32;39.90;28.10
34815;DHT22;21030;53.912;15.214;2023-08-30T06:58:02;39.90;28.00
34815;DHT22;21030;53.912;15.214;2023-08-30T07:00:29;39.80;28.00
34815;DHT22;21030;53.912;15.214;2023-08-30T07:02:56;40.00;28.20
34815;DHT22;21030;53.912;15.214;2023-08-30T07:05:23;39.60;27.90
34815;DHT22;21030;53.912;15.214;2023-08-30T07:07:50;39.50;27.90
34815;DHT22;21030;53.912;15.214;2023-08-30T07:10:18;39.40;28.20
34815;DHT22;21030;53.912;15.214;2023-08-30T07:12:45;39.70;28.20
34815;DHT22;21030;53.912;15.214;2023-08-30T07:15:15;40.10;28.20
34815;DHT22;21030;53.912;15.214;2023-08-30T07:17:44;40.30;28.00
34815;DHT22;21030;53.912;15.214;2023-08-30T07:20:13;40.40;27.70
34815;DHT22;21030;53.912;15.214;2023-08-30T07:22:40;40.20;27.70
34815;DHT22;21030;53.912;15.214;2023-08-30T07:25:08;40.10;27.80
34815;DHT22;21030;53.912;15.214;2023-08-30T07:27:37;40.30;27.70
34815;DHT22;21030;53.912;15.214;2023-08-30T07:30:04;40.20;27.60
34815;DHT22;21030;53.912;15.214;2023-08-30T07:32:32;40.20;27.80
34815;DHT22;21030;53.912;15.214;2023-08-30T07:34:59;40.10;28.00
34815;DHT22;21030;53.912;15.214;2023-08-30T07:37:26;39.90;27.80
34815;DHT22;21030;53.912;15.214;2023-08-30T07:39:53;40.10;27.80
34815;DHT22;21030;53.912;15.214;2023-08-30T07:42:20;40.30;27.60
34815;DHT22;21030;53.912;15.214;2023-08-30T07:44:47;40.50;27.50
34815;DHT22;21030;53.912;15.214;2023-08-30T07:47:14;40.50;27.60
34815;DHT22;21030;53.912;15.214;2023-08-30T07:49:41;40.60;27.50
34815;DHT22;21030;53.912;15.214;2023-08-30T07:52:11;40.30;27.70
34815;DHT22;21030;53.912;15.214;2023-08-30T07:54:39;40.10;27.80
34815;DHT22;21030;53.912;15.214;2023-08-30T07:57:07;39.50;28.00
34815;DHT22;21030;53.912;15.214;2023-08-30T07:59:38;39.60;27.80
34815;DHT22;21030;53.912;15.214;2023-08-30T08:02:06;39.70;28.00
34815;DHT22;21030;53.912;15.214;2023-08-30T08:04:35;39.90;27.90
34815;DHT22;21030;53.912;15.214;2023-08-30T08:07:03;39.90;27.90
34815;DHT22;21030;53.912;15.214;2023-08-30T08:09:31;40.30;27.60
34815;DHT22;21030;53.912;15.214;2023-08-30T08:11:58;40.40;27.60
34815;DHT22;21030;53.912;15.214;2023-08-30T08:14:25;40.70;27.60
34815;DHT22;21030;53.912;15.214;2023-08-30T08:16:53;41.00;26.90
34815;DHT22;21030;53.912;15.214;2023-08-30T08:19:20;41.20;26.70
34815;DHT22;21030;53.912;15.214;2023-08-30T08:21:51;40.60;26.80
34815;DHT22;21030;53.912;15.214;2023-08-30T08:24:21;40.70;27.10
34815;DHT22;21030;53.912;15.214;2023-08-30T08:26:48;40.70;27.00
34815;DHT22;21030;53.912;15.214;2023-08-30T08:29:15;41.20;26.80
34815;DHT22;21030;53.912;15.214;2023-08-30T08:31:42;41.10;26.60
34815;DHT22;21030;53.912;15.214;2023-08-30T08:34:09;40.40;26.70
34815;DHT22;21030;53.912;15.214;2023-08-30T08:36:38;39.90;27.20
34815;DHT22;21030;53.912;15.214;2023-08-30T08:39:05;39.70;27.30
34815;DHT22;21030;53.912;15.214;2023-08-30T08:41:38;39.20;28.00
34815;DHT22;21030;53.912;15.214;2023-08-30T08:44:06;39.30;28.20
34815;DHT22;21030;53.912;15.214;2023-08-30T08:46:38;39.00;28.40
34815;DHT22;21030;53.912;15.214;2023-08-30T08:49:14;39.00;28.60
34815;DHT22;21030;53.912;15.214;2023-08-30T08:51:42;39.30;28.50
34815;DHT22;21030;53.912;15.214;2023-08-30T08:54:11;39.40;28.40
34815;DHT22;21030;53.912;15.214;2023-08-30T08:56:39;39.40;28.30
34815;DHT22;21030;53.912;15.214;2023-08-30T08:59:08;39.50;28.10
34815;DHT22;21030;53.912;15.214;2023-08-30T09:01:37;39.20;28.60
34815;DHT22;21030;53.912;15.214;2023-08-30T09:04:11;39.30;28.80
34815;DHT22;21030;53.912;15.214;2023-08-30T09:06:39;39.30;28.60
34815;DHT22;21030;53.912;15.214;2023-08-30T09:09:10;38.80;28.80
34815;DHT22;21030;53.912;15.214;2023-08-30T09:11:37;38.70;29.10
34815;DHT22;21030;53.912;15.214;2023-08-30T09:14:17;38.50;29.10
34815;DHT22;21030;53.912;15.214;2023-08-30T09:16:58;38.90;28.80
34815;DHT22;21030;53.912;15.214;2023-08-30T09:19:27;39.50;28.50
34815;DHT22;21030;53.912;15.214;2023-08-30T09:21:56;39.90;28.20
34815;DHT22;21030;53.912;15.214;2023-08-30T09:24:24;40.30;27.70
34815;DHT22;21030;53.912;15.214;2023-08-30T09:26:53;40.10;27.50
34815;DHT22;21030;53.912;15.214;2023-08-30T09:29:21;40.00;27.60
34815;DHT22;21030;53.912;15.214;2023-08-30T09:31:51;40.20;27.20
34815;DHT22;21030;53.912;15.214;2023-08-30T09:34:25;40.30;27.50
34815;DHT22;21030;53.912;15.214;2023-08-30T09:36:53;40.70;27.30
34815;DHT22;21030;53.912;15.214;2023-08-30T09:39:20;40.30;27.70
34815;DHT22;21030;53.912;15.214;2023-08-30T09:41:49;39.90;27.50
34815;DHT22;21030;53.912;15.214;2023-08-30T09:44:21;39.90;27.80
34815;DHT22;21030;53.912;15.214;2023-08-30T09:46:53;40.30;27.80
34815;DHT22;21030;53.912;15.214;2023-08-30T09:49:23;40.40;27.10
34815;DHT22;21030;53.912;15.214;2023-08-30T09:51:51;40.10;27.30
34815;DHT22;21030;53.912;15.214;2023-08-30T09:54:41;39.60;27.60
34815;DHT22;21030;53.912;15.214;2023-08-30T09:57:10;39.70;27.90
34815;DHT22;21030;53.912;15.214;2023-08-30T09:59:39;39.70;27.90
34815;DHT22;21030;53.912;15.214;2023-08-30T10:02:08;39.70;28.00
34815;DHT22;21030;53.912;15.214;2023-08-30T10:04:38;40.20;28.10
34815;DHT22;21030;53.912;15.214;2023-08-30T10:07:09;40.40;27.50
34815;DHT22;21030;53.912;15.214;2023-08-30T10:09:38;40.90;26.90
34815;DHT22;21030;53.912;15.214;2023-08-30T10:12:26;40.70;27.00
34815;DHT22;21030;53.912;15.214;2023-08-30T10:14:54;41.00;27.00
34815;DHT22;21030;53.912;15.214;2023-08-30T10:17:27;40.90;26.70
34815;DHT22;21030;53.912;15.214;2023-08-30T10:19:56;41.40;26.50
34815;DHT22;21030;53.912;15.214;2023-08-30T10:22:24;41.80;26.60
34815;DHT22;21030;53.912;15.214;2023-08-30T10:24:56;42.20;26.30
34815;DHT22;21030;53.912;15.214;2023-08-30T10:27:31;42.50;25.90
34815;DHT22;21030;53.912;15.214;2023-08-30T10:30:02;42.70;25.60
34815;DHT22;21030;53.912;15.214;2023-08-30T10:32:31;42.40;25.50
34815;DHT22;21030;53.912;15.214;2023-08-30T10:35:01;42.40;25.70
34815;DHT22;21030;53.912;15.214;2023-08-30T10:37:30;42.30;25.70
34815;DHT22;21030;53.912;15.214;2023-08-30T10:40:00;41.40;25.50
34815;DHT22;21030;53.912;15.214;2023-08-30T10:42:30;41.50;25.70
34815;DHT22;21030;53.912;15.214;2023-08-30T10:47:40;42.00;25.70
34815;DHT22;21030;53.912;15.214;2023-08-30T10:50:10;42.30;25.90
34815;DHT22;21030;53.912;15.214;2023-08-30T10:52:37;41.90;25.40
34815;DHT22;21030;53.912;15.214;2023-08-30T10:55:15;40.80;26.20
34815;DHT22;21030;53.912;15.214;2023-08-30T10:57:45;40.20;27.00
34815;DHT22;21030;53.912;15.214;2023-08-30T11:02:47;41.00;27.00
34815;DHT22;21030;53.912;15.214;2023-08-30T11:05:25;41.60;26.60
34815;DHT22;21030;53.912;15.214;2023-08-30T11:07:53;42.00;26.10
34815;DHT22;21030;53.912;15.214;2023-08-30T11:10:21;42.10;26.20
34815;DHT22;21030;53.912;15.214;2023-08-30T11:12:49;42.20;26.20
34815;DHT22;21030;53.912;15.214;2023-08-30T11:15:17;42.40;25.70
34815;DHT22;21030;53.912;15.214;2023-08-30T11:17:44;42.30;25.90
34815;DHT22;21030;53.912;15.214;2023-08-30T11:20:14;42.60;25.80
34815;DHT22;21030;53.912;15.214;2023-08-30T11:22:45;42.70;25.60
34815;DHT22;21030;53.912;15.214;2023-08-30T11:25:14;42.70;25.00
34815;DHT22;21030;53.912;15.214;2023-08-30T11:27:42;42.50;25.40
34815;DHT22;21030;53.912;15.214;2023-08-30T11:30:10;42.80;25.20
34815;DHT22;21030;53.912;15.214;2023-08-30T11:32:42;42.90;24.80
34815;DHT22;21030;53.912;15.214;2023-08-30T11:35:12;43.10;25.00
34815;DHT22;21030;53.912;15.214;2023-08-30T11:37:40;43.20;24.60
34815;DHT22;21030;53.912;15.214;2023-08-30T11:40:08;43.00;24.40
34815;DHT22;21030;53.912;15.214;2023-08-30T11:42:41;43.00;24.40
34815;DHT22;21030;53.912;15.214;2023-08-30T11:45:10;43.10;24.30
34815;DHT22;21030;53.912;15.214;2023-08-30T11:47:38;43.10;24.10
34815;DHT22;21030;53.912;15.214;2023-08-30T11:50:08;43.20;24.30
34815;DHT22;21030;53.912;15.214;2023-08-30T11:52:37;42.90;24.50
34815;DHT22;21030;53.912;15.214;2023-08-30T11:55:06;43.20;24.80
34815;DHT22;21030;53.912;15.214;2023-08-30T11:57:35;43.20;24.50
34815;DHT22;21030;53.912;15.214;2023-08-30T12:00:12;43.40;25.10
34815;DHT22;21030;53.912;15.214;2023-08-30T12:02:40;43.30;24.50
34815;DHT22;21030;53.912;15.214;2023-08-30T12:05:11;43.20;24.90
34815;DHT22;21030;53.912;15.214;2023-08-30T12:07:40;43.20;24.90
34815;DHT22;21030;53.912;15.214;2023-08-30T12:10:10;43.20;24.70
34815;DHT22;21030;53.912;15.214;2023-08-30T12:12:38;43.10;24.80
34815;DHT22;21030;53.912;15.214;2023-08-30T12:15:11;42.70;24.70
34815;DHT22;21030;53.912;15.214;2023-08-30T12:17:39;42.50;25.70
34815;DHT22;21030;53.912;15.214;2023-08-30T12:20:13;42.70;26.00
34815;DHT22;21030;53.912;15.214;2023-08-30T12:22:47;42.90;25.70
34815;DHT22;21030;53.912;15.214;2023-08-30T12:25:21;43.10;25.60
34815;DHT22;21030;53.912;15.214;2023-08-30T12:27:50;43.20;25.10
34815;DHT22;21030;53.912;15.214;2023-08-30T12:30:17;43.20;24.90
34815;DHT22;21030;53.912;15.214;2023-08-30T12:32:48;43.20;25.30
34815;DHT22;21030;53.912;15.214;2023-08-30T12:35:15;43.20;25.80
34815;DHT22;21030;53.912;15.214;2023-08-30T12:37:43;43.10;25.80
34815;DHT22;21030;53.912;15.214;2023-08-30T12:40:10;43.10;25.80
34815;DHT22;21030;53.912;15.214;2023-08-30T12:42:38;43.10;25.30
34815;DHT22;21030;53.912;15.214;2023-08-30T12:45:05;43.10;25.80
34815;DHT22;21030;53.912;15.214;2023-08-30T12:47:33;43.20;25.80
34815;DHT22;21030;53.912;15.214;2023-08-30T12:50:02;43.10;26.10
34815;DHT22;21030;53.912;15.214;2023-08-30T12:52:29;43.10;25.90
34815;DHT22;21030;53.912;15.214;2023-08-30T12:54:56;43.10;26.20
34815;DHT22;21030;53.912;15.214;2023-08-30T12:57:25;43.00;25.70
34815;DHT22;21030;53.912;15.214;2023-08-30T12:59:53;42.70;25.80
34815;DHT22;21030;53.912;15.214;2023-08-30T13:02:20;42.00;26.00
34815;DHT22;21030;53.912;15.214;2023-08-30T13:04:47;41.90;26.60
34815;DHT22;21030;53.912;15.214;2023-08-30T13:07:14;41.90;26.90
34815;DHT22;21030;53.912;15.214;2023-08-30T13:09:41;42.00;27.00
34815;DHT22;21030;53.912;15.214;2023-08-30T13:12:10;42.20;26.80
34815;DHT22;21030;53.912;15.214;2023-08-30T13:14:37;42.30;26.90
34815;DHT22;21030;53.912;15.214;2023-08-30T13:17:04;42.50;26.80
34815;DHT22;21030;53.912;15.214;2023-08-30T13:19:31;42.60;26.90
34815;DHT22;21030;53.912;15.214;2023-08-30T13:21:58;42.70;26.70
34815;DHT22;21030;53.912;15.214;2023-08-30T13:24:26;42.90;26.70
34815;DHT22;21030;53.912;15.214;2023-08-30T13:26:53;43.10;26.70
34815;DHT22;21030;53.912;15.214;2023-08-30T13:29:20;43.30;26.10
34815;DHT22;21030;53.912;15.214;2023-08-30T13:31:47;43.50;25.80
34815;DHT22;21030;53.912;15.214;2023-08-30T13:34:14;43.50;25.60
34815;DHT22;21030;53.912;15.214;2023-08-30T13:36:41;43.50;25.20
34815;DHT22;21030;53.912;15.214;2023-08-30T13:39:08;43.40;25.00
34815;DHT22;21030;53.912;15.214;2023-08-30T13:41:35;43.40;24.90
34815;DHT22;21030;53.912;15.214;2023-08-30T13:44:02;43.40;24.90
34815;DHT22;21030;53.912;15.214;2023-08-30T13:46:32;43.70;24.80
34815;DHT22;21030;53.912;15.214;2023-08-30T13:48:59;43.60;24.80
34815;DHT22;21030;53.912;15.214;2023-08-30T13:51:27;43.70;24.80
34815;DHT22;21030;53.912;15.214;2023-08-30T13:53:54;43.50;25.00
34815;DHT22;21030;53.912;15.214;2023-08-30T13:56:22;43.40;25.20
34815;DHT22;21030;53.912;15.214;2023-08-30T13:58:49;43.70;25.50
34815;DHT22;21030;53.912;15.214;2023-08-30T14:01:17;43.70;24.50
34815;DHT22;21030;53.912;15.214;2023-08-30T14:03:44;43.60;24.50
34815;DHT22;21030;53.912;15.214;2023-08-30T14:06:11;43.60;24.40
34815;DHT22;21030;53.912;15.214;2023-08-30T14:08:38;43.50;24.60
34815;DHT22;21030;53.912;15.214;2023-08-30T14:11:05;43.50;24.70
34815;DHT22;21030;53.912;15.214;2023-08-30T14:13:33;43.70;24.90
34815;DHT22;21030;53.912;15.214;2023-08-30T14:16:03;43.80;24.70
34815;DHT22;21030;53.912;15.214;2023-08-30T14:18:32;43.70;24.80
34815;DHT22;21030;53.912;15.214;2023-08-30T14:21:00;43.70;24.70
34815;DHT22;21030;53.912;15.214;2023-08-30T14:23:29;43.60;24.70
34815;DHT22;21030;53.912;15.214;2023-08-30T14:26:01;43.30;24.60
34815;DHT22;21030;53.912;15.214;2023-08-30T14:28:28;43.50;24.80
34815;DHT22;21030;53.912;15.214;2023-08-30T14:30:55;43.10;24.80
34815;DHT22;21030;53.912;15.214;2023-08-30T14:33:22;42.90;24.90
34815;DHT22;21030;53.912;15.214;2023-08-30T14:35:49;43.00;24.70
34815;DHT22;21030;53.912;15.214;2023-08-30T14:38:16;42.80;24.70
34815;DHT22;21030;53.912;15.214;2023-08-30T14:40:43;42.90;24.90
34815;DHT22;21030;53.912;15.214;2023-08-30T14:43:10;42.70;24.90
34815;DHT22;21030;53.912;15.214;2023-08-30T14:45:37;42.80;25.10
34815;DHT22;21030;53.912;15.214;2023-08-30T14:48:04;42.70;24.70
34815;DHT22;21030;53.912;15.214;2023-08-30T14:50:32;42.70;24.90
34815;DHT22;21030;53.912;15.214;2023-08-30T14:52:59;42.60;25.10
34815;DHT22;21030;53.912;15.214;2023-08-30T14:55:26;42.50;25.00
34815;DHT22;21030;53.912;15.214;2023-08-30T14:57:53;42.60;25.20
34815;DHT22;21030;53.912;15.214;2023-08-30T15:00:20;42.70;24.80
34815;DHT22;21030;53.912;15.214;2023-08-30T15:02:47;42.80;24.70
34815;DHT22;21030;53.912;15.214;2023-08-30T15:05:15;42.90;24.60
34815;DHT22;21030;53.912;15.214;2023-08-30T15:07:42;42.90;24.40
34815;DHT22;21030;53.912;15.214;2023-08-30T15:10:09;42.90;24.50
34815;DHT22;21030;53.912;15.214;2023-08-30T15:12:40;42.90;24.40
34815;DHT22;21030;53.912;15.214;2023-08-30T15:15:07;43.00;24.40
34815;DHT22;21030;53.912;15.214;2023-08-30T15:17:34;43.00;24.10
34815;DHT22;21030;53.912;15.214;2023-08-30T15:20:03;42.90;24.20
34815;DHT22;21030;53.912;15.214;2023-08-30T15:22:31;42.80;24.20
34815;DHT22;21030;53.912;15.214;2023-08-30T15:24:59;42.70;24.30
34815;DHT22;21030;53.912;15.214;2023-08-30T15:27:29;42.30;24.20
34815;DHT22;21030;53.912;15.214;2023-08-30T15:29:56;42.30;24.30
34815;DHT22;21030;53.912;15.214;2023-08-30T15:32:23;42.20;24.20
34815;DHT22;21030;53.912;15.214;2023-08-30T15:34:51;42.30;24.60
34815;DHT22;21030;53.912;15.214;2023-08-30T15:37:18;42.20;24.50
34815;DHT22;21030;53.912;15.214;2023-08-30T15:39:45;42.30;24.60